Time;durP1;ratioP1;P1;durP2;ratioP2;P2;SDS_P1;SDS_P2;PMS_P1;PMS_P2;Temp;Humidity;BMP_temperature;BMP_pressure;BME280_temperature;BME280_humidity;BME280_pressure;Samples;Min_cycle;Max_cycle;Signal;HPM_P1;HPM_P2
2021/11/02 00:01:09;;;;;;;5.22;2.30;;;9.60;99.90;;;;;;5088612;28;20027;-46
2021/11/02 00:03:37;;;;;;;5.80;2.50;;;9.60;99.90;;;;;;5088887;28;20020;-47
2021/11/02 00:06:03;;;;;;;7.18;2.78;;;9.60;99.90;;;;;;5088907;28;20412;-46
2021/11/02 00:08:29;;;;;;;5.28;2.35;;;9.50;99.90;;;;;;5087959;28;20024;-47
2021/11/02 00:10:54;;;;;;;7.95;2.67;;;9.50;99.90;;;;;;5088858;28;20152;-49
2021/11/02 00:13:22;;;;;;;11.00;3.45;;;9.50;99.90;;;;;;5088638;28;20425;-48
2021/11/02 00:15:50;;;;;;;10.82;2.67;;;9.50;99.90;;;;;;5088924;28;20056;-46
2021/11/02 00:18:16;;;;;;;6.97;2.72;;;9.50;99.90;;;;;;5088377;28;20069;-48
2021/11/02 00:20:41;;;;;;;12.18;3.35;;;9.40;99.90;;;;;;5088935;28;20024;-49
2021/11/02 00:23:08;;;;;;;7.97;2.97;;;9.40;99.90;;;;;;5088870;28;20466;-50
2021/11/02 00:25:34;;;;;;;8.48;2.75;;;9.30;99.90;;;;;;5088114;28;20020;-47
2021/11/02 00:28:01;;;;;;;13.48;3.17;;;9.30;99.90;;;;;;5077904;28;20043;-48
2021/11/02 00:30:28;;;;;;;5.65;2.65;;;9.30;99.90;;;;;;5088697;28;20031;-47
2021/11/02 00:32:55;;;;;;;7.53;3.15;;;9.30;99.90;;;;;;5083608;28;20454;-46
2021/11/02 00:35:21;;;;;;;10.35;3.45;;;9.30;99.90;;;;;;5049466;28;20025;-47
2021/11/02 00:37:49;;;;;;;11.68;2.40;;;9.20;99.90;;;;;;5047678;28;20033;-48
2021/11/02 00:40:16;;;;;;;6.85;2.60;;;9.20;99.90;;;;;;5048112;28;20041;-48
2021/11/02 00:42:51;;;;;;;6.18;2.78;;;9.20;99.90;;;;;;5047991;28;20037;-49
2021/11/02 00:45:30;;;;;;;5.45;2.40;;;9.20;99.90;;;;;;5048182;28;20025;-50
2021/11/02 00:47:57;;;;;;;9.00;2.28;;;9.10;99.90;;;;;;5047509;28;20299;-47
2021/11/02 00:50:23;;;;;;;14.75;2.92;;;9.10;99.90;;;;;;5048318;28;20048;-47
2021/11/02 00:52:49;;;;;;;6.00;2.38;;;9.20;99.90;;;;;;5046891;28;20148;-47
2021/11/02 00:55:14;;;;;;;15.35;3.42;;;9.10;99.90;;;;;;5048282;28;20104;-47
2021/11/02 00:57:40;;;;;;;6.47;2.65;;;9.10;99.90;;;;;;5064277;28;20029;-47
2021/11/02 01:00:08;;;;;;;12.18;2.78;;;9.10;99.90;;;;;;5081039;28;20054;-50
2021/11/02 01:02:34;;;;;;;4.25;2.20;;;9.00;99.90;;;;;;5088073;28;20036;-47
2021/11/02 01:05:00;;;;;;;5.90;2.20;;;9.10;99.90;;;;;;5088372;28;20020;-49
2021/11/02 01:07:25;;;;;;;7.95;2.53;;;9.00;99.90;;;;;;5086340;28;20393;-47
2021/11/02 01:09:51;;;;;;;7.15;2.88;;;9.00;99.90;;;;;;5088197;28;20035;-50
2021/11/02 01:12:17;;;;;;;6.28;3.08;;;9.00;99.90;;;;;;5087939;28;20024;-47
2021/11/02 01:14:43;;;;;;;7.88;3.08;;;8.90;99.90;;;;;;5088221;28;20062;-49
2021/11/02 01:17:09;;;;;;;7.53;2.90;;;8.90;99.90;;;;;;5087425;28;20405;-48
2021/11/02 01:19:34;;;;;;;6.43;2.63;;;8.90;99.90;;;;;;5089947;28;20028;-47
2021/11/02 01:22:00;;;;;;;7.80;2.40;;;8.80;99.90;;;;;;5092029;28;20036;-46
2021/11/02 01:24:26;;;;;;;7.70;2.90;;;8.80;99.90;;;;;;5092113;28;20032;-49
2021/11/02 01:26:51;;;;;;;8.38;2.67;;;8.80;99.90;;;;;;5075921;28;20028;-50
2021/11/02 01:29:17;;;;;;;7.38;3.70;;;8.80;99.90;;;;;;5083157;28;20023;-47
2021/11/02 01:31:44;;;;;;;7.28;2.40;;;8.70;99.90;;;;;;5091907;28;20070;-48
2021/11/02 01:34:10;;;;;;;5.72;2.28;;;8.70;99.90;;;;;;5092153;28;20541;-50
2021/11/02 01:36:36;;;;;;;8.27;2.92;;;8.70;99.90;;;;;;5092085;28;20042;-48
2021/11/02 01:39:03;;;;;;;9.55;3.13;;;8.70;99.90;;;;;;5091481;28;20397;-47
2021/11/02 01:41:29;;;;;;;8.38;2.40;;;8.70;99.90;;;;;;5090439;28;20024;-47
2021/11/02 01:43:57;;;;;;;7.15;2.35;;;8.70;99.90;;;;;;5091477;28;20016;-47
2021/11/02 01:46:31;;;;;;;3.92;2.22;;;8.70;99.90;;;;;;5090309;28;20025;-47
2021/11/02 01:48:58;;;;;;;7.47;2.58;;;8.60;99.90;;;;;;5090832;28;20542;-49
2021/11/02 01:51:27;;;;;;;11.20;3.08;;;8.60;99.90;;;;;;5090464;28;20048;-47
2021/11/02 01:53:53;;;;;;;8.25;2.47;;;8.60;99.90;;;;;;5090050;28;20069;-48
2021/11/02 01:56:19;;;;;;;6.70;2.75;;;8.60;99.90;;;;;;5078865;28;20025;-48
2021/11/02 01:58:47;;;;;;;4.70;2.90;;;8.60;99.90;;;;;;5078741;28;20024;-49
2021/11/02 02:01:25;;;;;;;8.65;2.83;;;8.60;99.90;;;;;;5091363;28;20023;-47
2021/11/02 02:04:03;;;;;;;7.25;2.67;;;8.60;99.90;;;;;;5090081;28;20024;-47
2021/11/02 02:06:49;;;;;;;10.27;3.13;;;8.60;99.90;;;;;;5091446;28;20082;-48
2021/11/02 02:09:26;;;;;;;7.25;2.83;;;8.60;99.90;;;;;;5090595;28;20024;-48
2021/11/02 02:12:16;;;;;;;6.80;2.70;;;8.50;99.90;;;;;;5091218;28;20046;-48
2021/11/02 02:14:58;;;;;;;9.82;3.25;;;8.60;99.90;;;;;;5091278;28;20053;-47
2021/11/02 02:17:31;;;;;;;7.28;2.53;;;8.60;99.90;;;;;;5090706;28;20531;-48
2021/11/02 02:20:09;;;;;;;7.53;3.08;;;8.50;99.90;;;;;;5091360;28;20114;-47
2021/11/02 02:23:10;;;;;;;7.32;2.85;;;8.50;99.90;;;;;;5091026;28;20021;-47
2021/11/02 02:25:43;;;;;;;7.90;2.88;;;8.50;99.90;;;;;;5089636;28;20521;-47
2021/11/02 02:28:15;;;;;;;6.05;2.95;;;8.50;99.90;;;;;;5071252;28;20079;-47
2021/11/02 02:30:45;;;;;;;8.93;2.60;;;8.50;99.90;;;;;;5088220;28;20324;-47
2021/11/02 02:33:11;;;;;;;;;;;8.40;99.90;;;;;;5091100;28;20596;-48
2021/11/02 02:35:39;;;;;;;5.90;2.70;;;8.40;99.90;;;;;;5090955;28;19994;-47
2021/11/02 02:38:06;;;;;;;7.30;2.95;;;8.30;99.90;;;;;;5088684;28;20024;-48
2021/11/02 02:40:32;;;;;;;5.55;2.70;;;8.30;99.90;;;;;;5090146;28;20413;-48
2021/11/02 02:42:59;;;;;;;5.38;2.33;;;8.30;99.90;;;;;;5090088;28;20035;-47
2021/11/02 02:45:26;;;;;;;7.53;2.95;;;8.20;99.90;;;;;;5089272;28;20020;-48
2021/11/02 02:47:52;;;;;;;8.23;2.63;;;8.20;99.90;;;;;;5089789;28;20091;-49
2021/11/02 02:50:20;;;;;;;8.68;2.80;;;8.20;99.90;;;;;;5090461;28;20081;-49
2021/11/02 02:52:47;;;;;;;9.38;2.45;;;8.10;99.90;;;;;;5090358;28;20111;-47
2021/11/02 02:55:14;;;;;;;4.97;2.20;;;8.10;99.90;;;;;;5088959;28;20390;-50
2021/11/02 02:57:42;;;;;;;5.18;2.92;;;8.00;99.90;;;;;;5072885;28;20048;-50
2021/11/02 03:00:10;;;;;;;5.22;1.92;;;8.00;99.90;;;;;;5083355;28;20020;-48
2021/11/02 03:02:37;;;;;;;6.65;2.85;;;7.90;99.90;;;;;;5090560;28;20032;-46
2021/11/02 03:05:05;;;;;;;9.13;2.80;;;7.90;99.90;;;;;;5090048;28;20035;-47
2021/11/02 03:07:30;;;;;;;5.85;2.65;;;7.90;99.90;;;;;;5089307;28;20107;-51
2021/11/02 03:09:57;;;;;;;8.68;2.83;;;7.90;99.90;;;;;;5089964;28;20099;-50
2021/11/02 03:12:30;;;;;;;5.60;2.30;;;7.90;99.90;;;;;;5089572;28;20024;-48
2021/11/02 03:18:06;;;;;;;4.20;2.30;;;7.80;99.90;;;;;;5089363;28;20067;-48
2021/11/02 03:50:55;;;;;;;10.07;3.40;;;7.50;99.90;;;;;;5069031;28;20497;-47
2021/11/02 03:56:35;;;;;;;12.88;3.25;;;7.50;99.90;;;;;;5064814;28;20028;-47
2021/11/02 04:24:13;;;;;;;8.48;3.30;;;7.40;99.90;;;;;;5048641;28;20079;-48
2021/11/02 04:35:14;;;;;;;8.30;3.10;;;7.50;99.90;;;;;;5088776;28;20173;-48
2021/11/02 04:42:06;;;;;;;9.90;3.55;;;7.60;99.90;;;;;;5087822;28;20061;-48
2021/11/02 04:57:56;;;;;;;9.88;3.92;;;7.70;99.90;;;;;;5087809;28;20090;-47
2021/11/02 05:59:33;;;;;;;9.27;2.20;;;7.90;99.90;;;;;;5082735;28;20031;-47
2021/11/02 06:02:22;;;;;;;6.30;2.42;;;7.90;99.90;;;;;;5089776;28;20028;-50
2021/11/02 06:29:27;;;;;;;8.75;4.32;;;7.80;99.90;;;;;;5059039;28;20101;-47
2021/11/02 06:35:17;;;;;;;3.83;2.85;;;7.70;99.90;;;;;;5071324;28;20131;-48
2021/11/02 06:42:59;;;;;;;4.18;2.58;;;7.60;99.90;;;;;;5059820;28;20467;-50
2021/11/02 06:45:52;;;;;;;6.85;3.38;;;7.60;99.90;;;;;;5063005;28;20021;-49
2021/11/02 06:54:10;;;;;;;6.38;3.05;;;7.50;99.90;;;;;;5059919;28;20069;-47
2021/11/02 07:19:14;;;;;;;9.70;3.53;;;7.70;99.90;;;;;;5057132;28;20080;-50
2021/11/02 07:21:52;;;;;;;9.52;4.00;;;7.60;99.90;;;;;;5076177;28;20020;-49
2021/11/02 07:24:39;;;;;;;7.22;4.18;;;7.70;99.90;;;;;;5069384;28;20048;-48
2021/11/02 07:27:29;;;;;;;9.40;4.80;;;7.70;99.90;;;;;;5062742;28;20024;-49
2021/11/02 08:47:57;;;;;;;8.48;4.13;;;10.60;99.90;;;;;;5057377;28;20028;-52
2021/11/02 08:50:24;;;;;;;7.40;3.92;;;10.60;99.90;;;;;;5058450;28;20036;-51
2021/11/02 08:52:54;;;;;;;10.70;4.43;;;10.70;99.90;;;;;;5059296;28;20031;-51
2021/11/02 08:55:20;;;;;;;11.85;4.97;;;10.80;99.90;;;;;;5058703;28;20079;-50
2021/11/02 08:57:48;;;;;;;6.18;4.07;;;10.80;99.90;;;;;;5062628;28;20029;-51
2021/11/02 09:00:15;;;;;;;9.38;4.30;;;10.80;99.90;;;;;;5061005;28;20053;-51
2021/11/02 09:02:47;;;;;;;7.65;4.40;;;10.90;99.90;;;;;;5058156;28;20033;-50
2021/11/02 09:05:18;;;;;;;11.52;5.03;;;10.90;99.90;;;;;;5058135;28;20037;-53
2021/11/02 09:07:44;;;;;;;;;;;11.10;99.90;;;;;;5057904;28;20434;-51
2021/11/02 09:10:13;;;;;;;11.75;4.20;;;11.20;99.90;;;;;;5058140;28;19959;-50
2021/11/02 09:12:42;;;;;;;6.93;3.70;;;11.40;99.90;;;;;;5061849;28;20029;-51
2021/11/02 09:18:31;;;;;;;9.25;4.43;;;11.60;99.90;;;;;;5056246;28;20040;-50
2021/11/02 09:20:57;;;;;;;8.60;4.60;;;11.80;99.90;;;;;;5056373;28;20025;-51
2021/11/02 09:23:26;;;;;;;12.18;4.70;;;11.90;99.90;;;;;;5053015;28;20280;-50
2021/11/02 09:25:53;;;;;;;9.20;3.95;;;12.00;99.90;;;;;;5055509;28;20644;-52
2021/11/02 09:28:19;;;;;;;13.43;4.22;;;12.10;99.90;;;;;;5059541;28;20044;-50
2021/11/02 09:30:46;;;;;;;7.93;4.30;;;12.20;99.90;;;;;;5059367;28;20450;-52
2021/11/02 09:33:11;;;;;;;10.25;5.55;;;12.40;99.90;;;;;;5057001;28;20016;-50
2021/11/02 09:35:37;;;;;;;10.48;5.65;;;12.50;99.90;;;;;;5056882;28;20083;-51
2021/11/02 09:38:06;;;;;;;8.80;4.32;;;12.60;99.90;;;;;;5058058;28;20495;-51
2021/11/02 09:41:12;;;;;;;13.73;4.97;;;13.50;99.90;;;;;;5064370;28;20024;-51
2021/11/02 09:44:04;;;;;;;10.65;3.80;;;15.10;99.90;;;;;;5061294;28;20025;-52
2021/11/02 09:47:37;;;;;;;8.02;3.75;;;17.10;96.90;;;;;;5060635;28;20112;-51
2021/11/02 09:50:14;;;;;;;6.63;3.88;;;19.10;91.80;;;;;;5040987;28;20580;-48
2021/11/02 09:52:58;;;;;;;7.72;3.83;;;19.30;86.60;;;;;;5062241;28;20394;-49
2021/11/02 09:55:26;;;;;;;6.53;3.58;;;20.00;83.40;;;;;;5059795;28;20140;-50
2021/11/02 09:58:16;;;;;;;5.90;3.15;;;20.30;78.30;;;;;;5064661;28;20115;-51
2021/11/02 10:00:55;;;;;;;8.13;4.57;;;21.10;78.40;;;;;;5086409;28;20413;-50
2021/11/02 10:03:34;;;;;;;5.88;3.47;;;20.90;75.00;;;;;;5080042;28;20354;-50
2021/11/02 10:06:04;;;;;;;6.57;3.00;;;20.60;76.50;;;;;;5056897;28;20118;-50
2021/11/02 10:08:39;;;;;;;7.13;3.65;;;20.40;76.70;;;;;;5073019;28;20036;-50
2021/11/02 10:11:25;;;;;;;9.93;3.45;;;19.30;76.10;;;;;;5050904;28;20075;-49
2021/11/02 10:14:20;;;;;;;5.95;3.40;;;18.20;81.60;;;;;;5073606;28;20085;-49
2021/11/02 10:17:10;;;;;;;5.28;3.30;;;17.40;85.10;;;;;;5086545;28;20036;-48
2021/11/02 10:20:09;;;;;;;6.47;3.38;;;16.40;88.20;;;;;;5069819;28;20021;-48
2021/11/02 10:22:53;;;;;;;7.95;2.97;;;15.60;91.20;;;;;;5067455;28;20062;-49
2021/11/02 10:25:59;;;;;;;7.93;3.38;;;15.70;92.20;;;;;;5062092;28;20152;-49
2021/11/02 10:28:43;;;;;;;11.00;3.35;;;15.50;93.30;;;;;;5070910;28;20032;-49
2021/11/02 10:31:33;;;;;;;4.88;2.75;;;15.70;92.70;;;;;;5059732;28;20033;-49
2021/11/02 10:34:42;;;;;;;7.17;2.90;;;15.50;92.70;;;;;;5059652;28;20049;-49
2021/11/02 10:37:10;;;;;;;7.07;3.03;;;15.40;92.40;;;;;;5053090;28;20671;-48
2021/11/02 10:40:01;;;;;;;5.30;3.00;;;14.80;93.80;;;;;;5060023;28;20028;-49
2021/11/02 10:42:41;;;;;;;5.55;2.67;;;14.70;94.00;;;;;;5058658;28;20099;-48
2021/11/02 10:45:10;;;;;;;5.90;3.10;;;14.60;94.10;;;;;;5058893;28;20037;-47
2021/11/02 10:47:58;;;;;;;4.82;2.95;;;14.10;94.50;;;;;;5058408;28;20036;-51
2021/11/02 10:50:29;;;;;;;5.45;2.70;;;14.10;95.60;;;;;;5057553;28;20032;-51
2021/11/02 10:53:00;;;;;;;4.40;3.00;;;14.50;95.80;;;;;;5059266;28;20028;-51
2021/11/02 10:55:47;;;;;;;8.90;3.10;;;14.70;94.70;;;;;;5058031;28;20479;-51
2021/11/02 10:58:36;;;;;;;9.80;3.40;;;15.00;94.70;;;;;;5057435;28;20017;-51
2021/11/02 11:01:05;;;;;;;6.88;3.47;;;14.90;94.20;;;;;;5076260;28;20512;-49
2021/11/02 11:03:32;;;;;;;5.30;2.72;;;14.70;93.90;;;;;;5089994;28;20398;-48
2021/11/02 11:06:03;;;;;;;4.18;2.30;;;14.60;94.70;;;;;;5078234;28;20029;-51
2021/11/02 11:08:32;;;;;;;7.07;2.80;;;14.60;95.70;;;;;;5062826;28;20051;-51
2021/11/02 11:11:00;;;;;;;6.93;2.95;;;14.60;96.00;;;;;;5065501;28;20045;-52
2021/11/02 11:13:28;;;;;;;5.07;2.70;;;14.70;95.70;;;;;;5069350;28;20012;-52
2021/11/02 11:16:12;;;;;;;6.57;3.05;;;14.80;95.60;;;;;;5071598;28;20059;-51
2021/11/02 11:18:52;;;;;;;5.22;2.88;;;14.80;95.60;;;;;;5065470;28;20032;-51
2021/11/02 11:21:18;;;;;;;7.75;2.70;;;14.90;95.00;;;;;;5056684;28;20486;-52
2021/11/02 11:23:48;;;;;;;8.25;2.85;;;15.70;96.20;;;;;;5057167;28;20024;-50
2021/11/02 11:26:13;;;;;;;5.90;2.92;;;16.40;92.10;;;;;;5057363;28;20059;-52
2021/11/02 11:28:40;;;;;;;6.85;3.25;;;16.20;91.90;;;;;;5065543;28;20532;-52
2021/11/02 11:31:07;;;;;;;6.03;2.67;;;16.00;92.10;;;;;;5082557;28;20036;-49
2021/11/02 11:33:33;;;;;;;7.05;2.70;;;15.80;92.20;;;;;;5069103;28;20432;-51
2021/11/02 11:36:06;;;;;;;4.72;2.42;;;15.50;92.40;;;;;;5061216;28;20037;-47
2021/11/02 11:38:38;;;;;;;3.72;2.17;;;15.50;93.20;;;;;;5048916;28;20071;-49
2021/11/02 11:41:08;;;;;;;2.65;2.20;;;16.40;91.60;;;;;;5060402;28;20274;-50
2021/11/02 11:43:34;;;;;;;5.43;2.20;;;17.50;90.10;;;;;;5074138;28;20435;-52
2021/11/02 11:46:03;;;;;;;4.93;1.92;;;18.10;84.80;;;;;;5067646;28;20036;-50
2021/11/02 11:48:30;;;;;;;3.65;2.13;;;18.60;82.60;;;;;;5061552;28;20486;-49
2021/11/02 11:51:00;;;;;;;1.77;1.42;;;19.10;83.10;;;;;;5050872;28;20040;-49
2021/11/02 11:53:30;;;;;;;3.97;1.95;;;19.10;81.30;;;;;;5068043;28;20563;-50
2021/11/02 11:56:13;;;;;;;1.50;1.40;;;18.20;81.10;;;;;;5079834;28;20551;-48
2021/11/02 11:58:51;;;;;;;3.28;1.92;;;17.70;83.00;;;;;;5078694;28;20541;-50
2021/11/02 12:01:34;;;;;;;5.03;1.90;;;18.20;84.30;;;;;;5062037;28;20017;-50
2021/11/02 12:04:30;;;;;;;3.15;1.58;;;18.20;81.80;;;;;;5052809;28;20037;-50
2021/11/02 12:07:29;;;;;;;4.38;1.80;;;19.20;79.00;;;;;;5058144;28;20082;-50
2021/11/02 12:10:03;;;;;;;3.43;1.73;;;20.10;77.60;;;;;;5069340;28;20070;-51
2021/11/02 12:12:33;;;;;;;5.18;1.70;;;20.70;74.80;;;;;;5068165;28;20027;-50
2021/11/02 12:15:01;;;;;;;2.97;2.35;;;20.30;74.70;;;;;;5067955;28;20072;-49
2021/11/02 12:17:29;;;;;;;2.72;1.70;;;20.30;73.50;;;;;;5069661;28;20020;-50
2021/11/02 12:20:10;;;;;;;6.03;1.77;;;20.10;74.60;;;;;;5070962;28;20054;-50
2021/11/02 12:22:54;;;;;;;3.53;1.80;;;19.40;75.60;;;;;;5054374;28;20021;-50
2021/11/02 12:25:32;;;;;;;5.05;2.10;;;18.60;76.50;;;;;;5050709;28;20029;-50
2021/11/02 12:27:58;;;;;;;5.70;2.05;;;17.50;80.20;;;;;;5071039;28;20040;-49
2021/11/02 12:30:24;;;;;;;2.45;1.52;;;16.70;80.10;;;;;;5083744;28;20059;-47
2021/11/02 12:32:56;;;;;;;2.17;1.63;;;16.00;83.80;;;;;;5083014;28;20028;-50
2021/11/02 12:35:30;;;;;;;3.80;2.00;;;15.50;86.00;;;;;;5083009;28;20531;-50
2021/11/02 12:37:59;;;;;;;6.15;1.92;;;15.20;88.20;;;;;;5066380;28;20037;-51
2021/11/02 12:40:31;;;;;;;6.78;2.17;;;14.70;90.60;;;;;;5049716;28;20033;-52
2021/11/02 12:42:56;;;;;;;2.90;1.73;;;14.50;91.20;;;;;;5049356;28;20025;-52
2021/11/02 12:45:26;;;;;;;7.93;1.70;;;14.30;92.70;;;;;;5067903;28;20090;-52
2021/11/02 12:47:59;;;;;;;4.05;1.90;;;14.30;92.90;;;;;;5059419;28;20033;-51
2021/11/02 12:50:28;;;;;;;5.45;1.83;;;14.20;93.40;;;;;;5074103;28;20032;-50
2021/11/02 12:52:56;;;;;;;5.18;1.90;;;14.10;93.40;;;;;;5070009;28;20090;-49
2021/11/02 12:55:24;;;;;;;6.43;1.98;;;14.10;93.70;;;;;;5058428;28;20475;-49
2021/11/02 12:58:13;;;;;;;2.92;1.67;;;14.10;93.70;;;;;;5067382;28;20034;-50
2021/11/02 13:00:50;;;;;;;4.45;1.83;;;14.00;94.50;;;;;;5084737;28;20028;-50
2021/11/02 13:03:23;;;;;;;7.90;2.17;;;13.90;95.70;;;;;;5084425;28;20021;-50
2021/11/02 13:06:06;;;;;;;3.47;1.70;;;13.90;96.20;;;;;;5060033;28;20120;-49
2021/11/02 13:08:39;;;;;;;2.60;1.45;;;13.90;95.50;;;;;;5067739;28;20031;-50
2021/11/02 13:11:15;;;;;;;3.50;1.45;;;14.00;94.20;;;;;;5059592;28;20030;-48
2021/11/02 13:14:01;;;;;;;2.92;2.10;;;14.00;93.60;;;;;;5074788;28;20028;-49
2021/11/02 13:16:32;;;;;;;3.70;1.73;;;13.90;92.70;;;;;;5083576;28;20128;-46
2021/11/02 13:19:11;;;;;;;3.65;1.40;;;13.80;93.30;;;;;;5077530;28;20251;-50
2021/11/02 13:21:36;;;;;;;5.40;1.70;;;13.90;93.50;;;;;;5084517;28;20581;-50
2021/11/02 13:24:27;;;;;;;6.13;1.92;;;13.80;93.80;;;;;;5080056;28;20081;-49
2021/11/02 13:26:55;;;;;;;4.25;2.08;;;13.70;94.10;;;;;;5068908;28;20501;-50
2021/11/02 13:29:22;;;;;;;3.50;1.90;;;13.50;94.10;;;;;;5059485;28;20080;-49
2021/11/02 13:31:49;;;;;;;5.20;1.92;;;13.50;94.50;;;;;;5058156;28;20532;-50
2021/11/02 13:34:18;;;;;;;2.78;1.50;;;13.50;94.20;;;;;;5053058;28;20025;-50
2021/11/02 13:36:58;;;;;;;4.78;2.15;;;13.30;94.60;;;;;;5068498;28;20024;-49
2021/11/02 13:39:24;;;;;;;2.92;1.83;;;13.10;94.70;;;;;;5069479;28;20559;-49
2021/11/02 13:41:51;;;;;;;3.55;1.75;;;13.00;95.40;;;;;;5067551;28;20059;-50
2021/11/02 13:44:18;;;;;;;4.40;2.05;;;13.00;96.10;;;;;;5052836;28;20031;-49
2021/11/02 13:46:49;;;;;;;2.50;1.65;;;12.90;96.40;;;;;;5067834;28;20021;-49
2021/11/02 13:49:17;;;;;;;5.80;1.75;;;12.90;96.40;;;;;;5063341;28;20032;-47
2021/11/02 13:51:43;;;;;;;3.75;1.48;;;12.90;96.90;;;;;;5071426;28;20511;-50
2021/11/02 13:54:10;;;;;;;3.08;1.63;;;12.80;95.20;;;;;;5070733;28;20035;-49
2021/11/02 13:56:42;;;;;;;2.60;1.70;;;12.70;94.90;;;;;;5080792;28;20478;-49
2021/11/02 13:59:09;;;;;;;1.85;1.10;;;12.70;95.20;;;;;;5082859;28;20039;-51
2021/11/02 14:01:49;;;;;;;2.05;1.30;;;12.60;95.30;;;;;;5074302;28;20082;-51
2021/11/02 14:04:36;;;;;;;2.50;1.67;;;12.50;95.50;;;;;;5051552;28;20079;-50
2021/11/02 14:07:25;;;;;;;1.63;1.13;;;12.50;95.30;;;;;;5069949;28;20066;-50
2021/11/02 14:10:05;;;;;;;2.00;1.50;;;12.50;96.10;;;;;;5070759;28;20032;-50
2021/11/02 14:12:53;;;;;;;2.07;1.10;;;12.40;95.60;;;;;;5066780;28;20105;-51
2021/11/02 14:15:20;;;;;;;2.20;1.00;;;12.40;96.10;;;;;;5074853;28;20029;-49
2021/11/02 14:17:56;;;;;;;2.97;1.30;;;12.40;95.90;;;;;;5089807;28;20026;-51
2021/11/02 14:20:36;;;;;;;3.90;1.30;;;12.30;95.70;;;;;;5092391;28;20024;-51
2021/11/02 14:23:15;;;;;;;1.40;1.10;;;12.30;95.90;;;;;;5092481;28;20089;-52
2021/11/02 14:25:41;;;;;;;1.58;1.10;;;12.30;96.30;;;;;;5090976;28;20121;-51
2021/11/02 14:28:09;;;;;;;2.72;1.42;;;12.30;95.90;;;;;;5086091;28;20048;-51
2021/11/02 14:30:34;;;;;;;1.40;1.20;;;12.40;95.90;;;;;;5088990;28;20028;-51
2021/11/02 14:33:03;;;;;;;1.60;1.17;;;12.50;95.70;;;;;;5092364;28;20026;-50
2021/11/02 14:35:49;;;;;;;3.60;1.30;;;12.50;96.40;;;;;;5092227;28;20039;-48
2021/11/02 14:38:26;;;;;;;2.90;1.58;;;12.50;96.90;;;;;;5091571;28;20483;-49
2021/11/02 14:40:58;;;;;;;4.57;2.13;;;12.60;97.90;;;;;;5090919;28;20491;-49
2021/11/02 14:43:33;;;;;;;3.33;1.67;;;12.70;97.60;;;;;;5090414;28;20366;-49
2021/11/02 14:46:00;;;;;;;3.50;1.75;;;12.60;98.10;;;;;;5092037;28;20064;-50
2021/11/02 14:48:25;;;;;;;2.35;1.42;;;12.70;98.30;;;;;;5090145;28;20520;-51
2021/11/02 14:50:54;;;;;;;2.35;1.77;;;12.80;97.70;;;;;;5090622;28;20024;-50
2021/11/02 14:53:29;;;;;;;1.90;1.70;;;12.70;97.30;;;;;;5050215;28;20025;-50
2021/11/02 14:56:00;;;;;;;1.92;1.40;;;12.60;97.80;;;;;;5048151;28;20036;-51
2021/11/02 14:58:41;;;;;;;3.58;1.75;;;12.50;98.60;;;;;;5061125;28;20106;-51
2021/11/02 15:01:27;;;;;;;;;;;12.50;99.00;;;;;;5073426;28;20013;-50
2021/11/02 15:04:06;;;;;;;3.90;1.83;;;12.30;99.00;;;;;;5066234;28;19912;-48
2021/11/02 15:06:41;;;;;;;2.67;1.52;;;12.20;99.40;;;;;;5076848;28;20111;-50
2021/11/02 15:09:10;;;;;;;6.38;2.10;;;12.10;99.90;;;;;;5070469;28;20521;-48
2021/11/02 15:11:38;;;;;;;5.20;1.73;;;12.00;99.90;;;;;;5070910;28;20024;-50
2021/11/02 15:14:06;;;;;;;15.50;8.35;;;12.00;99.90;;;;;;5070982;28;20025;-49
2021/11/02 15:16:40;;;;;;;3.13;2.05;;;11.80;99.90;;;;;;5070788;28;20025;-46
2021/11/02 15:19:06;;;;;;;2.40;2.13;;;11.80;99.90;;;;;;5066595;28;20031;-48
2021/11/02 15:21:50;;;;;;;3.90;1.98;;;11.80;99.90;;;;;;5059761;28;20033;-46
2021/11/02 15:24:24;;;;;;;3.05;2.33;;;11.70;99.90;;;;;;5061762;28;20100;-49
2021/11/02 15:27:11;;;;;;;4.30;2.13;;;11.70;99.90;;;;;;5052705;28;20049;-51
2021/11/02 15:29:40;;;;;;;2.17;1.73;;;11.70;99.90;;;;;;5075946;28;20020;-50
2021/11/02 15:32:13;;;;;;;3.00;1.77;;;11.60;99.90;;;;;;5088409;28;20032;-50
2021/11/02 15:34:43;;;;;;;3.45;1.95;;;11.50;99.90;;;;;;5088278;28;20028;-49
2021/11/02 15:37:28;;;;;;;1.95;1.70;;;11.50;99.90;;;;;;5086582;28;20471;-50
2021/11/02 15:40:06;;;;;;;3.28;2.15;;;11.40;99.90;;;;;;5089305;28;20028;-49
2021/11/02 15:42:35;;;;;;;3.83;2.20;;;11.40;99.90;;;;;;5088834;28;20032;-48
2021/11/02 15:45:05;;;;;;;2.15;1.88;;;11.30;99.90;;;;;;5086113;28;20584;-49
2021/11/02 15:47:33;;;;;;;4.47;2.05;;;11.20;99.90;;;;;;5058754;28;20130;-50
2021/11/02 15:50:04;;;;;;;5.05;2.33;;;11.10;99.90;;;;;;5060337;28;20024;-48
2021/11/02 15:52:31;;;;;;;3.58;2.63;;;11.00;99.90;;;;;;5058750;28;20570;-49
2021/11/02 15:55:10;;;;;;;4.55;2.47;;;11.00;99.90;;;;;;5057124;28;20378;-49
2021/11/02 15:57:38;;;;;;;2.80;2.00;;;10.90;99.90;;;;;;5054391;28;20482;-49
2021/11/02 16:00:05;;;;;;;2.85;1.83;;;10.90;99.90;;;;;;5079938;28;20028;-49
2021/11/02 16:02:39;;;;;;;6.30;2.15;;;10.80;99.90;;;;;;5088803;28;20412;-50
2021/11/02 16:05:11;;;;;;;3.63;2.15;;;10.70;99.90;;;;;;5086807;28;20047;-50
2021/11/02 16:07:36;;;;;;;3.28;2.45;;;10.70;99.90;;;;;;5087548;28;20569;-49
2021/11/02 16:10:04;;;;;;;2.38;2.03;;;10.60;99.90;;;;;;5083404;28;20029;-51
2021/11/02 16:12:48;;;;;;;4.03;1.92;;;10.60;99.90;;;;;;5065010;28;20040;-50
2021/11/02 16:15:35;;;;;;;4.03;2.30;;;10.50;99.90;;;;;;5070169;28;20021;-51
2021/11/02 16:18:23;;;;;;;2.88;1.90;;;10.40;99.90;;;;;;5069621;28;20115;-48
2021/11/02 16:20:51;;;;;;;2.65;2.20;;;10.30;99.90;;;;;;5070277;28;20017;-52
2021/11/02 16:23:20;;;;;;;4.93;2.15;;;10.30;99.90;;;;;;5070309;28;20535;-50
2021/11/02 16:25:55;;;;;;;3.13;2.30;;;10.30;99.90;;;;;;5070355;28;20386;-49
2021/11/02 16:28:30;;;;;;;5.75;3.00;;;10.30;99.90;;;;;;5068418;28;20085;-48
2021/11/02 16:31:03;;;;;;;6.00;3.00;;;10.30;99.90;;;;;;5081566;28;20047;-51
2021/11/02 16:33:34;;;;;;;7.03;3.38;;;10.30;99.90;;;;;;5090297;28;20095;-51
2021/11/02 16:36:21;;;;;;;;;;;10.30;99.90;;;;;;5090563;28;20107;-49
2021/11/02 16:38:49;;;;;;;5.32;2.60;;;10.30;99.90;;;;;;5089799;28;19911;-49
2021/11/02 16:41:25;;;;;;;10.15;4.72;;;10.40;99.90;;;;;;5089897;28;20024;-49
2021/11/02 16:43:55;;;;;;;7.72;3.75;;;10.30;99.90;;;;;;5089985;28;20025;-44
2021/11/02 16:46:27;;;;;;;7.25;3.85;;;10.40;99.90;;;;;;5090183;28;20485;-46
2021/11/02 16:49:08;;;;;;;5.43;3.85;;;10.40;99.90;;;;;;5090206;28;20191;-47
2021/11/02 16:51:48;;;;;;;7.43;3.67;;;10.30;99.90;;;;;;5094332;28;20109;-48
2021/11/02 16:54:17;;;;;;;6.25;3.58;;;10.30;99.90;;;;;;5094524;28;20020;-47
2021/11/02 16:57:23;;;;;;;6.13;3.60;;;10.30;99.90;;;;;;5091782;28;20043;-48
2021/11/02 17:00:02;;;;;;;9.00;3.63;;;10.20;99.90;;;;;;5083390;28;20025;-46
2021/11/02 17:02:40;;;;;;;6.25;3.17;;;10.20;99.90;;;;;;5078523;28;20052;-45
2021/11/02 17:05:06;;;;;;;5.97;3.17;;;10.20;99.90;;;;;;5054165;28;20463;-48
2021/11/02 17:07:51;;;;;;;4.68;3.30;;;10.10;99.90;;;;;;5053400;28;20079;-47
2021/11/02 17:10:23;;;;;;;7.50;2.92;;;10.10;99.90;;;;;;5054119;28;20024;-46
2021/11/02 17:12:50;;;;;;;7.03;3.08;;;10.00;99.90;;;;;;5053441;28;20490;-48
2021/11/02 17:15:28;;;;;;;4.63;3.08;;;10.00;99.90;;;;;;5058772;28;20065;-47
2021/11/02 17:17:55;;;;;;;4.63;2.50;;;9.90;99.90;;;;;;5065067;28;20021;-49
2021/11/02 17:20:21;;;;;;;8.15;2.50;;;9.90;99.90;;;;;;5057321;28;20021;-48
2021/11/02 17:22:47;;;;;;;5.45;3.15;;;9.80;99.90;;;;;;5053517;28;20024;-47
2021/11/02 17:25:15;;;;;;;8.57;3.40;;;9.80;99.90;;;;;;5059196;28;20115;-48
2021/11/02 17:27:42;;;;;;;5.40;2.90;;;9.70;99.90;;;;;;5072612;28;20025;-48
2021/11/02 17:30:23;;;;;;;6.57;3.40;;;9.70;99.90;;;;;;5071339;28;20027;-47
2021/11/02 17:32:51;;;;;;;5.18;3.05;;;9.70;99.90;;;;;;5082814;28;20024;-48
2021/11/02 17:35:17;;;;;;;5.40;2.80;;;9.60;99.90;;;;;;5093477;28;20541;-50
2021/11/02 17:37:50;;;;;;;5.20;4.07;;;9.50;99.90;;;;;;5092820;28;20055;-47
2021/11/02 17:40:17;;;;;;;5.80;3.95;;;9.40;99.90;;;;;;5093477;28;20024;-49
2021/11/02 17:42:45;;;;;;;8.40;3.85;;;9.40;99.90;;;;;;5093087;28;20031;-48
2021/11/02 17:45:13;;;;;;;7.45;3.97;;;9.30;99.90;;;;;;5093465;28;20024;-48
2021/11/02 17:47:41;;;;;;;8.38;4.82;;;9.30;99.90;;;;;;5092613;28;20111;-49
2021/11/02 17:50:07;;;;;;;12.73;5.60;;;9.20;99.90;;;;;;5085242;28;20086;-47
2021/11/02 17:52:33;;;;;;;10.18;5.28;;;9.20;99.90;;;;;;5062059;28;20063;-48
2021/11/02 17:54:59;;;;;;;8.25;4.95;;;9.10;99.90;;;;;;5061448;28;20061;-47
2021/11/02 17:57:25;;;;;;;8.20;5.18;;;9.10;99.90;;;;;;5068614;28;20082;-47
2021/11/02 17:59:51;;;;;;;11.38;6.22;;;9.00;99.90;;;;;;5072745;28;20071;-47
2021/11/02 18:02:18;;;;;;;15.85;6.40;;;9.00;99.90;;;;;;5069458;28;20036;-48
2021/11/02 18:04:44;;;;;;;9.52;4.93;;;8.90;99.90;;;;;;5087992;28;20032;-49
2021/11/02 18:07:10;;;;;;;8.40;5.38;;;8.80;99.90;;;;;;5092417;28;20020;-50
2021/11/02 18:09:36;;;;;;;11.93;5.13;;;8.80;99.90;;;;;;5092724;28;20024;-49